sensor_id;sensor_type;location;lat;lon;timestamp;pressure;altitude;pressure_sealevel;temperature;humidity
60817;BME280;51921;51.518;-3.188;2024-01-27T00:01:01;103021.92;;;3.43;100.00
60817;BME280;51921;51.518;-3.188;2024-01-27T00:03:26;103020.34;;;4.25;100.00
60817;BME280;51921;51.518;-3.188;2024-01-27T00:05:51;103012.03;;;0.86;100.00
60817;BME280;51921;51.518;-3.188;2024-01-27T00:08:17;103015.48;;;2.69;100.00
60817;BME280;51921;51.518;-3.188;2024-01-27T00:10:42;103016.13;;;5.20;100.00
60817;BME280;51921;51.518;-3.188;2024-01-27T00:13:07;103018.33;;;5.12;99.99
60817;BME280;51921;51.518;-3.188;2024-01-27T00:15:33;103022.74;;;5.21;96.93
60817;BME280;51921;51.518;-3.188;2024-01-27T00:17:58;103028.00;;;2.24;100.00
60817;BME280;51921;51.518;-3.188;2024-01-27T00:20:24;103021.63;;;0.54;100.00
60817;BME280;51921;51.518;-3.188;2024-01-27T00:22:49;103019.20;;;0.79;100.00
60817;BME280;51921;51.518;-3.188;2024-01-27T00:25:15;103011.41;;;2.92;100.00
60817;BME280;51921;51.518;-3.188;2024-01-27T00:27:40;103001.66;;;3.28;100.00
60817;BME280;51921;51.518;-3.188;2024-01-27T00:30:07;103007.00;;;2.08;100.00
60817;BME280;51921;51.518;-3.188;2024-01-27T00:32:31;103002.98;;;3.05;100.00
60817;BME280;51921;51.518;-3.188;2024-01-27T00:34:57;103006.25;;;2.73;100.00
60817;BME280;51921;51.518;-3.188;2024-01-27T00:37:22;103013.28;;;4.23;100.00
60817;BME280;51921;51.518;-3.188;2024-01-27T00:39:47;103014.23;;;0.46;100.00
60817;BME280;51921;51.518;-3.188;2024-01-27T00:42:13;103023.75;;;3.32;100.00
60817;BME280;51921;51.518;-3.188;2024-01-27T00:44:38;103030.50;;;3.49;100.00
60817;BME280;51921;51.518;-3.188;2024-01-27T00:47:03;103026.89;;;4.85;100.00
60817;BME280;51921;51.518;-3.188;2024-01-27T00:49:28;103017.14;;;4.12;100.00
60817;BME280;51921;51.518;-3.188;2024-01-27T00:51:54;103010.53;;;3.79;100.00
60817;BME280;51921;51.518;-3.188;2024-01-27T00:54:19;103012.06;;;1.56;100.00
60817;BME280;51921;51.518;-3.188;2024-01-27T00:56:45;103007.22;;;3.06;100.00
60817;BME280;51921;51.518;-3.188;2024-01-27T00:59:11;103003.06;;;4.29;100.00
60817;BME280;51921;51.518;-3.188;2024-01-27T01:01:36;102997.51;;;1.38;100.00
60817;BME280;51921;51.518;-3.188;2024-01-27T01:04:01;103006.83;;;2.81;100.00
60817;BME280;51921;51.518;-3.188;2024-01-27T01:06:27;103013.18;;;4.21;100.00
60817;BME280;51921;51.518;-3.188;2024-01-27T01:08:52;103017.16;;;4.58;99.36
60817;BME280;51921;51.518;-3.188;2024-01-27T01:11:17;103002.36;;;4.76;95.08
60817;BME280;51921;51.518;-3.188;2024-01-27T01:13:43;102999.94;;;4.64;95.77
60817;BME280;51921;51.518;-3.188;2024-01-27T01:16:08;103001.36;;;5.24;92.66
60817;BME280;51921;51.518;-3.188;2024-01-27T01:18:34;102994.01;;;4.92;91.48
60817;BME280;51921;51.518;-3.188;2024-01-27T01:20:59;102982.73;;;4.91;91.09
60817;BME280;51921;51.518;-3.188;2024-01-27T01:23:25;102996.41;;;3.47;100.00
60817;BME280;51921;51.518;-3.188;2024-01-27T01:25:51;103007.95;;;4.87;95.48
60817;BME280;51921;51.518;-3.188;2024-01-27T01:28:16;103003.10;;;4.86;91.23
60817;BME280;51921;51.518;-3.188;2024-01-27T01:30:41;103003.04;;;0.81;100.00
60817;BME280;51921;51.518;-3.188;2024-01-27T01:33:07;103000.30;;;2.29;100.00
60817;BME280;51921;51.518;-3.188;2024-01-27T01:35:32;103007.31;;;2.00;100.00
60817;BME280;51921;51.518;-3.188;2024-01-27T01:37:57;103016.25;;;-0.38;100.00
60817;BME280;51921;51.518;-3.188;2024-01-27T01:40:23;103007.09;;;-1.39;100.00
60817;BME280;51921;51.518;-3.188;2024-01-27T01:42:51;103008.57;;;-0.93;100.00
60817;BME280;51921;51.518;-3.188;2024-01-27T01:45:14;103014.63;;;-0.85;100.00
60817;BME280;51921;51.518;-3.188;2024-01-27T01:47:41;103013.17;;;-1.04;100.00
60817;BME280;51921;51.518;-3.188;2024-01-27T01:50:06;103010.07;;;-2.18;100.00
60817;BME280;51921;51.518;-3.188;2024-01-27T01:52:31;103002.83;;;-0.99;100.00
60817;BME280;51921;51.518;-3.188;2024-01-27T01:54:56;102997.19;;;1.13;100.00
60817;BME280;51921;51.518;-3.188;2024-01-27T01:57:22;103002.39;;;2.29;100.00
60817;BME280;51921;51.518;-3.188;2024-01-27T01:59:48;102995.44;;;2.76;100.00
60817;BME280;51921;51.518;-3.188;2024-01-27T02:02:13;102991.07;;;3.57;100.00
60817;BME280;51921;51.518;-3.188;2024-01-27T02:04:41;102990.84;;;3.26;100.00
60817;BME280;51921;51.518;-3.188;2024-01-27T02:07:04;102992.12;;;3.35;100.00
60817;BME280;51921;51.518;-3.188;2024-01-27T02:09:29;103003.89;;;2.84;100.00
60817;BME280;51921;51.518;-3.188;2024-01-27T02:11:55;102996.68;;;3.19;100.00
60817;BME280;51921;51.518;-3.188;2024-01-27T02:14:20;102999.71;;;3.06;100.00
60817;BME280;51921;51.518;-3.188;2024-01-27T02:16:46;102995.87;;;3.06;100.00
60817;BME280;51921;51.518;-3.188;2024-01-27T02:19:12;103001.88;;;2.57;100.00
60817;BME280;51921;51.518;-3.188;2024-01-27T02:21:37;103001.88;;;2.75;100.00
60817;BME280;51921;51.518;-3.188;2024-01-27T02:24:06;103002.04;;;2.41;100.00
60817;BME280;51921;51.518;-3.188;2024-01-27T02:26:28;103000.45;;;3.05;100.00
60817;BME280;51921;51.518;-3.188;2024-01-27T02:28:54;102992.07;;;3.91;100.00
60817;BME280;51921;51.518;-3.188;2024-01-27T02:31:19;102987.66;;;1.95;100.00
60817;BME280;51921;51.518;-3.188;2024-01-27T02:33:45;102979.44;;;3.08;100.00
60817;BME280;51921;51.518;-3.188;2024-01-27T02:36:10;102984.63;;;2.18;100.00
60817;BME280;51921;51.518;-3.188;2024-01-27T02:38:36;102978.25;;;1.26;100.00
60817;BME280;51921;51.518;-3.188;2024-01-27T02:41:02;102983.02;;;2.42;100.00
60817;BME280;51921;51.518;-3.188;2024-01-27T02:43:28;102985.81;;;0.69;100.00
60817;BME280;51921;51.518;-3.188;2024-01-27T02:45:53;102986.54;;;1.73;100.00
60817;BME280;51921;51.518;-3.188;2024-01-27T02:48:19;102985.23;;;1.81;100.00
60817;BME280;51921;51.518;-3.188;2024-01-27T02:50:44;102979.82;;;4.18;100.00
60817;BME280;51921;51.518;-3.188;2024-01-27T02:53:10;102976.61;;;3.76;100.00
60817;BME280;51921;51.518;-3.188;2024-01-27T02:55:36;102975.21;;;1.65;100.00
60817;BME280;51921;51.518;-3.188;2024-01-27T02:58:01;102976.15;;;3.01;100.00
60817;BME280;51921;51.518;-3.188;2024-01-27T03:00:27;102977.47;;;4.16;100.00
60817;BME280;51921;51.518;-3.188;2024-01-27T03:02:52;102970.44;;;4.18;98.14
60817;BME280;51921;51.518;-3.188;2024-01-27T03:05:18;102970.01;;;3.53;100.00
60817;BME280;51921;51.518;-3.188;2024-01-27T03:07:44;102968.95;;;3.68;97.15
60817;BME280;51921;51.518;-3.188;2024-01-27T03:10:09;102962.28;;;4.00;93.74
60817;BME280;51921;51.518;-3.188;2024-01-27T03:12:35;102954.13;;;3.78;99.92
60817;BME280;51921;51.518;-3.188;2024-01-27T03:15:00;102956.65;;;2.79;100.00
60817;BME280;51921;51.518;-3.188;2024-01-27T03:17:26;102953.25;;;1.90;100.00
60817;BME280;51921;51.518;-3.188;2024-01-27T03:19:52;102961.66;;;1.48;100.00
60817;BME280;51921;51.518;-3.188;2024-01-27T03:22:17;102958.12;;;0.71;100.00
60817;BME280;51921;51.518;-3.188;2024-01-27T03:24:43;102961.76;;;-0.73;100.00
60817;BME280;51921;51.518;-3.188;2024-01-27T03:27:08;102961.39;;;-1.07;100.00
60817;BME280;51921;51.518;-3.188;2024-01-27T03:29:34;102962.73;;;-1.43;100.00
60817;BME280;51921;51.518;-3.188;2024-01-27T03:32:00;102959.44;;;-2.01;100.00
60817;BME280;51921;51.518;-3.188;2024-01-27T03:34:25;102953.18;;;-2.07;100.00
60817;BME280;51921;51.518;-3.188;2024-01-27T03:36:51;102943.63;;;-1.63;100.00
60817;BME280;51921;51.518;-3.188;2024-01-27T03:39:16;102945.31;;;-0.19;100.00
60817;BME280;51921;51.518;-3.188;2024-01-27T03:41:42;102940.94;;;1.68;100.00
60817;BME280;51921;51.518;-3.188;2024-01-27T03:44:08;102937.77;;;2.21;100.00
60817;BME280;51921;51.518;-3.188;2024-01-27T03:46:33;102940.12;;;3.30;100.00
60817;BME280;51921;51.518;-3.188;2024-01-27T03:48:59;102945.70;;;3.74;100.00
60817;BME280;51921;51.518;-3.188;2024-01-27T03:51:25;102943.40;;;3.05;100.00
60817;BME280;51921;51.518;-3.188;2024-01-27T03:53:51;102937.31;;;0.30;100.00
60817;BME280;51921;51.518;-3.188;2024-01-27T03:56:16;102953.54;;;2.51;100.00
60817;BME280;51921;51.518;-3.188;2024-01-27T03:58:42;102951.41;;;2.41;100.00
60817;BME280;51921;51.518;-3.188;2024-01-27T04:01:08;102950.04;;;1.88;100.00
60817;BME280;51921;51.518;-3.188;2024-01-27T04:03:33;102947.56;;;2.07;100.00
60817;BME280;51921;51.518;-3.188;2024-01-27T04:05:59;102934.57;;;3.59;100.00
60817;BME280;51921;51.518;-3.188;2024-01-27T04:08:24;102919.39;;;3.70;100.00
60817;BME280;51921;51.518;-3.188;2024-01-27T04:10:50;102912.02;;;3.38;100.00
60817;BME280;51921;51.518;-3.188;2024-01-27T04:13:16;102919.63;;;3.79;100.00
60817;BME280;51921;51.518;-3.188;2024-01-27T04:15:41;102922.18;;;1.12;100.00
60817;BME280;51921;51.518;-3.188;2024-01-27T04:18:08;102917.21;;;0.24;100.00
60817;BME280;51921;51.518;-3.188;2024-01-27T04:20:33;102918.36;;;-0.10;100.00
60817;BME280;51921;51.518;-3.188;2024-01-27T04:22:58;102915.71;;;1.30;100.00
60817;BME280;51921;51.518;-3.188;2024-01-27T04:25:24;102906.39;;;-0.27;100.00
60817;BME280;51921;51.518;-3.188;2024-01-27T04:27:51;102907.76;;;0.98;100.00
60817;BME280;51921;51.518;-3.188;2024-01-27T04:30:15;102905.46;;;-0.49;100.00
60817;BME280;51921;51.518;-3.188;2024-01-27T04:32:41;102899.30;;;1.53;100.00
60817;BME280;51921;51.518;-3.188;2024-01-27T04:35:09;102900.54;;;0.19;100.00
60817;BME280;51921;51.518;-3.188;2024-01-27T04:37:32;102902.86;;;-0.85;100.00
60817;BME280;51921;51.518;-3.188;2024-01-27T04:39:57;102899.04;;;-1.16;100.00
60817;BME280;51921;51.518;-3.188;2024-01-27T04:42:23;102897.22;;;-0.73;100.00
60817;BME280;51921;51.518;-3.188;2024-01-27T04:44:49;102905.17;;;-1.20;100.00
60817;BME280;51921;51.518;-3.188;2024-01-27T04:47:14;102909.41;;;0.57;100.00
60817;BME280;51921;51.518;-3.188;2024-01-27T04:49:40;102899.26;;;-0.04;100.00
60817;BME280;51921;51.518;-3.188;2024-01-27T04:52:06;102902.91;;;2.51;100.00
60817;BME280;51921;51.518;-3.188;2024-01-27T04:54:31;102905.86;;;3.13;100.00
60817;BME280;51921;51.518;-3.188;2024-01-27T04:56:57;102902.18;;;2.21;100.00
60817;BME280;51921;51.518;-3.188;2024-01-27T04:59:23;102892.38;;;2.84;100.00
60817;BME280;51921;51.518;-3.188;2024-01-27T05:01:48;102901.02;;;2.47;100.00
60817;BME280;51921;51.518;-3.188;2024-01-27T05:04:14;102902.19;;;2.05;100.00
60817;BME280;51921;51.518;-3.188;2024-01-27T05:06:44;102901.08;;;-0.01;100.00
60817;BME280;51921;51.518;-3.188;2024-01-27T05:09:05;102900.54;;;-0.98;100.00
60817;BME280;51921;51.518;-3.188;2024-01-27T05:11:32;102903.49;;;-2.05;100.00
60817;BME280;51921;51.518;-3.188;2024-01-27T05:13:57;102903.92;;;-2.16;100.00
60817;BME280;51921;51.518;-3.188;2024-01-27T05:16:22;102907.04;;;-1.63;100.00
60817;BME280;51921;51.518;-3.188;2024-01-27T05:18:48;102909.38;;;-1.54;100.00
60817;BME280;51921;51.518;-3.188;2024-01-27T05:21:14;102901.31;;;-2.09;100.00
60817;BME280;51921;51.518;-3.188;2024-01-27T05:23:39;102884.36;;;-2.33;100.00
60817;BME280;51921;51.518;-3.188;2024-01-27T05:26:05;102877.21;;;-1.86;100.00
60817;BME280;51921;51.518;-3.188;2024-01-27T05:28:31;102878.15;;;-1.20;100.00
60817;BME280;51921;51.518;-3.188;2024-01-27T05:30:56;102882.27;;;0.99;100.00
60817;BME280;51921;51.518;-3.188;2024-01-27T05:33:22;102884.85;;;1.19;100.00
60817;BME280;51921;51.518;-3.188;2024-01-27T05:35:48;102890.10;;;-1.29;100.00
60817;BME280;51921;51.518;-3.188;2024-01-27T05:38:13;102906.37;;;-1.83;100.00
60817;BME280;51921;51.518;-3.188;2024-01-27T05:40:39;102900.17;;;0.55;100.00
60817;BME280;51921;51.518;-3.188;2024-01-27T05:43:04;102885.33;;;-1.61;100.00
60817;BME280;51921;51.518;-3.188;2024-01-27T05:45:30;102883.26;;;-2.21;100.00
60817;BME280;51921;51.518;-3.188;2024-01-27T05:47:56;102892.04;;;-0.82;100.00
60817;BME280;51921;51.518;-3.188;2024-01-27T05:50:21;102893.41;;;1.42;100.00
60817;BME280;51921;51.518;-3.188;2024-01-27T05:52:47;102892.41;;;2.33;100.00
60817;BME280;51921;51.518;-3.188;2024-01-27T05:55:13;102887.88;;;1.88;100.00
60817;BME280;51921;51.518;-3.188;2024-01-27T05:57:38;102882.84;;;-0.94;100.00
60817;BME280;51921;51.518;-3.188;2024-01-27T06:00:05;102881.74;;;-0.91;100.00
60817;BME280;51921;51.518;-3.188;2024-01-27T06:02:30;102885.44;;;-0.13;100.00
60817;BME280;51921;51.518;-3.188;2024-01-27T06:04:55;102871.83;;;-1.18;100.00
60817;BME280;51921;51.518;-3.188;2024-01-27T06:07:21;102858.58;;;-1.32;100.00
60817;BME280;51921;51.518;-3.188;2024-01-27T06:09:47;102860.46;;;0.91;100.00
60817;BME280;51921;51.518;-3.188;2024-01-27T06:12:13;102870.85;;;-1.14;100.00
60817;BME280;51921;51.518;-3.188;2024-01-27T06:14:38;102873.79;;;-1.07;100.00
60817;BME280;51921;51.518;-3.188;2024-01-27T06:17:04;102879.21;;;-0.72;100.00
60817;BME280;51921;51.518;-3.188;2024-01-27T06:19:29;102875.36;;;0.65;100.00
60817;BME280;51921;51.518;-3.188;2024-01-27T06:21:55;102871.46;;;2.03;100.00
60817;BME280;51921;51.518;-3.188;2024-01-27T06:24:21;102864.39;;;2.32;100.00
60817;BME280;51921;51.518;-3.188;2024-01-27T06:26:46;102865.62;;;2.73;100.00
60817;BME280;51921;51.518;-3.188;2024-01-27T06:29:12;102861.88;;;2.40;100.00
60817;BME280;51921;51.518;-3.188;2024-01-27T06:31:38;102860.12;;;1.51;100.00
60817;BME280;51921;51.518;-3.188;2024-01-27T06:34:03;102858.80;;;0.50;100.00
60817;BME280;51921;51.518;-3.188;2024-01-27T06:36:29;102857.42;;;-0.85;100.00
60817;BME280;51921;51.518;-3.188;2024-01-27T06:38:55;102862.32;;;-0.59;100.00
60817;BME280;51921;51.518;-3.188;2024-01-27T06:41:20;102856.70;;;-0.92;100.00
60817;BME280;51921;51.518;-3.188;2024-01-27T06:43:46;102855.44;;;-1.26;100.00
60817;BME280;51921;51.518;-3.188;2024-01-27T06:46:12;102849.40;;;-1.23;100.00
60817;BME280;51921;51.518;-3.188;2024-01-27T06:48:37;102846.63;;;-1.49;100.00
60817;BME280;51921;51.518;-3.188;2024-01-27T06:53:28;102847.19;;;-0.77;100.00
60817;BME280;51921;51.518;-3.188;2024-01-27T06:55:54;102847.88;;;-1.70;100.00
60817;BME280;51921;51.518;-3.188;2024-01-27T06:58:20;102856.24;;;0.71;100.00
60817;BME280;51921;51.518;-3.188;2024-01-27T07:00:45;102860.55;;;0.70;100.00
60817;BME280;51921;51.518;-3.188;2024-01-27T07:03:11;102853.19;;;0.63;100.00
60817;BME280;51921;51.518;-3.188;2024-01-27T07:05:36;102857.55;;;0.51;100.00
60817;BME280;51921;51.518;-3.188;2024-01-27T07:08:02;102868.01;;;1.54;100.00
60817;BME280;51921;51.518;-3.188;2024-01-27T07:10:27;102865.32;;;2.34;100.00
60817;BME280;51921;51.518;-3.188;2024-01-27T07:12:53;102863.30;;;1.76;100.00
60817;BME280;51921;51.518;-3.188;2024-01-27T07:15:19;102862.79;;;1.58;100.00
60817;BME280;51921;51.518;-3.188;2024-01-27T07:17:44;102858.29;;;1.40;100.00
60817;BME280;51921;51.518;-3.188;2024-01-27T07:20:11;102857.40;;;-0.53;100.00
60817;BME280;51921;51.518;-3.188;2024-01-27T07:22:35;102857.12;;;-1.01;100.00
60817;BME280;51921;51.518;-3.188;2024-01-27T07:25:01;102861.53;;;-1.29;100.00
60817;BME280;51921;51.518;-3.188;2024-01-27T07:27:27;102863.34;;;-0.80;100.00
60817;BME280;51921;51.518;-3.188;2024-01-27T07:29:52;102865.01;;;-0.36;100.00
60817;BME280;51921;51.518;-3.188;2024-01-27T07:32:19;102861.56;;;-0.93;100.00
60817;BME280;51921;51.518;-3.188;2024-01-27T07:34:44;102855.28;;;-1.09;100.00
60817;BME280;51921;51.518;-3.188;2024-01-27T07:37:09;102853.36;;;-1.14;100.00
60817;BME280;51921;51.518;-3.188;2024-01-27T07:39:35;102853.45;;;-1.58;100.00
60817;BME280;51921;51.518;-3.188;2024-01-27T07:42:01;102858.34;;;-1.43;100.00
60817;BME280;51921;51.518;-3.188;2024-01-27T07:44:27;102855.60;;;-0.38;100.00
60817;BME280;51921;51.518;-3.188;2024-01-27T07:46:52;102853.30;;;1.67;100.00
60817;BME280;51921;51.518;-3.188;2024-01-27T07:49:17;102848.99;;;1.04;100.00
60817;BME280;51921;51.518;-3.188;2024-01-27T07:51:43;102841.11;;;1.67;100.00
60817;BME280;51921;51.518;-3.188;2024-01-27T07:54:09;102841.28;;;1.18;100.00
60817;BME280;51921;51.518;-3.188;2024-01-27T07:56:34;102831.96;;;0.13;100.00
60817;BME280;51921;51.518;-3.188;2024-01-27T07:59:00;102835.21;;;0.98;100.00
60817;BME280;51921;51.518;-3.188;2024-01-27T08:01:25;102833.10;;;2.44;100.00
60817;BME280;51921;51.518;-3.188;2024-01-27T08:03:51;102834.97;;;3.53;100.00
60817;BME280;51921;51.518;-3.188;2024-01-27T08:06:19;102831.10;;;3.36;100.00
60817;BME280;51921;51.518;-3.188;2024-01-27T08:08:44;102832.43;;;4.46;100.00
60817;BME280;51921;51.518;-3.188;2024-01-27T08:11:08;102829.91;;;4.30;100.00
60817;BME280;51921;51.518;-3.188;2024-01-27T08:13:33;102837.94;;;3.01;100.00
60817;BME280;51921;51.518;-3.188;2024-01-27T08:15:59;102832.19;;;3.87;100.00
60817;BME280;51921;51.518;-3.188;2024-01-27T08:18:25;102839.35;;;1.24;100.00
60817;BME280;51921;51.518;-3.188;2024-01-27T08:20:50;102838.85;;;-0.71;100.00
60817;BME280;51921;51.518;-3.188;2024-01-27T08:23:16;102838.45;;;-0.76;100.00
60817;BME280;51921;51.518;-3.188;2024-01-27T08:25:41;102847.11;;;-0.78;100.00
60817;BME280;51921;51.518;-3.188;2024-01-27T08:28:07;102851.30;;;-0.40;100.00
60817;BME280;51921;51.518;-3.188;2024-01-27T08:30:33;102862.08;;;1.00;100.00
60817;BME280;51921;51.518;-3.188;2024-01-27T08:32:58;102873.73;;;2.54;100.00
60817;BME280;51921;51.518;-3.188;2024-01-27T08:35:24;102883.14;;;2.86;100.00
60817;BME280;51921;51.518;-3.188;2024-01-27T08:37:49;102889.22;;;4.09;100.00
60817;BME280;51921;51.518;-3.188;2024-01-27T08:40:15;102899.13;;;1.50;100.00
60817;BME280;51921;51.518;-3.188;2024-01-27T08:42:40;102899.13;;;3.74;100.00
60817;BME280;51921;51.518;-3.188;2024-01-27T08:45:07;102896.90;;;2.62;100.00
60817;BME280;51921;51.518;-3.188;2024-01-27T08:47:31;102902.73;;;3.00;100.00
60817;BME280;51921;51.518;-3.188;2024-01-27T08:49:57;102909.00;;;4.28;100.00
60817;BME280;51921;51.518;-3.188;2024-01-27T08:52:22;102911.23;;;3.56;100.00
60817;BME280;51921;51.518;-3.188;2024-01-27T08:54:48;102907.71;;;3.82;100.00
60817;BME280;51921;51.518;-3.188;2024-01-27T08:57:15;102902.07;;;3.65;100.00
60817;BME280;51921;51.518;-3.188;2024-01-27T08:59:39;102906.12;;;1.99;100.00
60817;BME280;51921;51.518;-3.188;2024-01-27T09:02:05;102904.83;;;2.05;100.00
60817;BME280;51921;51.518;-3.188;2024-01-27T09:04:30;102913.97;;;2.09;100.00
60817;BME280;51921;51.518;-3.188;2024-01-27T09:06:56;102918.34;;;3.01;100.00
60817;BME280;51921;51.518;-3.188;2024-01-27T09:09:21;102916.36;;;2.43;100.00
60817;BME280;51921;51.518;-3.188;2024-01-27T09:11:47;102914.67;;;1.99;100.00
60817;BME280;51921;51.518;-3.188;2024-01-27T09:14:12;102904.94;;;2.26;100.00
60817;BME280;51921;51.518;-3.188;2024-01-27T09:16:38;102904.32;;;3.02;100.00
60817;BME280;51921;51.518;-3.188;2024-01-27T09:19:03;102897.07;;;1.29;100.00
60817;BME280;51921;51.518;-3.188;2024-01-27T09:21:29;102902.19;;;0.87;100.00
60817;BME280;51921;51.518;-3.188;2024-01-27T09:23:55;102892.17;;;1.63;100.00
60817;BME280;51921;51.518;-3.188;2024-01-27T09:26:20;102893.77;;;2.13;100.00
60817;BME280;51921;51.518;-3.188;2024-01-27T09:28:46;102887.76;;;3.10;100.00
60817;BME280;51921;51.518;-3.188;2024-01-27T09:31:12;102888.82;;;4.47;100.00
60817;BME280;51921;51.518;-3.188;2024-01-27T09:33:37;102895.03;;;4.89;100.00
60817;BME280;51921;51.518;-3.188;2024-01-27T09:36:04;102893.40;;;4.70;100.00
60817;BME280;51921;51.518;-3.188;2024-01-27T09:38:28;102897.96;;;5.72;100.00
60817;BME280;51921;51.518;-3.188;2024-01-27T09:40:54;102903.51;;;6.08;100.00
60817;BME280;51921;51.518;-3.188;2024-01-27T09:43:19;102900.20;;;5.73;100.00
60817;BME280;51921;51.518;-3.188;2024-01-27T09:45:45;102899.05;;;4.25;100.00
60817;BME280;51921;51.518;-3.188;2024-01-27T09:48:12;102897.79;;;2.85;100.00
60817;BME280;51921;51.518;-3.188;2024-01-27T09:50:35;102902.81;;;2.93;100.00
60817;BME280;51921;51.518;-3.188;2024-01-27T09:53:01;102900.56;;;3.78;100.00
60817;BME280;51921;51.518;-3.188;2024-01-27T09:55:26;102893.15;;;2.90;100.00
60817;BME280;51921;51.518;-3.188;2024-01-27T09:57:52;102892.87;;;2.76;100.00
60817;BME280;51921;51.518;-3.188;2024-01-27T10:00:19;102886.59;;;2.59;100.00
60817;BME280;51921;51.518;-3.188;2024-01-27T10:02:45;102889.20;;;1.37;100.00
60817;BME280;51921;51.518;-3.188;2024-01-27T10:05:09;102887.47;;;3.84;100.00
60817;BME280;51921;51.518;-3.188;2024-01-27T10:07:34;102883.45;;;3.66;100.00
60817;BME280;51921;51.518;-3.188;2024-01-27T10:10:00;102882.37;;;5.20;100.00
60817;BME280;51921;51.518;-3.188;2024-01-27T10:12:26;102882.23;;;5.51;100.00
60817;BME280;51921;51.518;-3.188;2024-01-27T10:14:51;102875.99;;;5.54;100.00
60817;BME280;51921;51.518;-3.188;2024-01-27T10:17:21;102877.11;;;7.61;100.00
60817;BME280;51921;51.518;-3.188;2024-01-27T10:19:42;102874.91;;;7.13;100.00
60817;BME280;51921;51.518;-3.188;2024-01-27T10:22:07;102882.47;;;5.77;100.00
60817;BME280;51921;51.518;-3.188;2024-01-27T10:24:32;102879.36;;;4.31;100.00
60817;BME280;51921;51.518;-3.188;2024-01-27T10:27:00;102876.94;;;4.66;100.00
60817;BME280;51921;51.518;-3.188;2024-01-27T10:29:23;102881.27;;;6.18;100.00
60817;BME280;51921;51.518;-3.188;2024-01-27T10:31:49;102881.84;;;6.83;100.00
60817;BME280;51921;51.518;-3.188;2024-01-27T10:34:14;102880.61;;;7.42;100.00
60817;BME280;51921;51.518;-3.188;2024-01-27T10:36:40;102884.04;;;7.33;100.00
60817;BME280;51921;51.518;-3.188;2024-01-27T10:39:14;102879.68;;;8.24;100.00
60817;BME280;51921;51.518;-3.188;2024-01-27T10:41:31;102878.98;;;6.51;100.00
60817;BME280;51921;51.518;-3.188;2024-01-27T10:43:57;102888.62;;;7.21;100.00
60817;BME280;51921;51.518;-3.188;2024-01-27T10:46:22;102896.36;;;7.51;100.00
60817;BME280;51921;51.518;-3.188;2024-01-27T10:48:50;102900.52;;;6.74;100.00
60817;BME280;51921;51.518;-3.188;2024-01-27T10:51:16;102901.63;;;7.01;100.00
60817;BME280;51921;51.518;-3.188;2024-01-27T10:53:39;102899.41;;;7.18;100.00
60817;BME280;51921;51.518;-3.188;2024-01-27T10:56:04;102888.76;;;6.62;100.00
60817;BME280;51921;51.518;-3.188;2024-01-27T10:58:30;102883.23;;;7.43;100.00
60817;BME280;51921;51.518;-3.188;2024-01-27T11:00:56;102882.51;;;7.30;100.00
60817;BME280;51921;51.518;-3.188;2024-01-27T11:03:21;102885.81;;;6.66;100.00
60817;BME280;51921;51.518;-3.188;2024-01-27T11:05:46;102887.17;;;7.08;100.00
60817;BME280;51921;51.518;-3.188;2024-01-27T11:08:12;102887.19;;;7.27;100.00
60817;BME280;51921;51.518;-3.188;2024-01-27T11:10:37;102885.77;;;7.57;100.00
60817;BME280;51921;51.518;-3.188;2024-01-27T11:13:04;102885.58;;;7.93;100.00
60817;BME280;51921;51.518;-3.188;2024-01-27T11:15:28;102883.94;;;7.60;100.00
60817;BME280;51921;51.518;-3.188;2024-01-27T11:17:57;102882.56;;;8.18;100.00
60817;BME280;51921;51.518;-3.188;2024-01-27T11:20:19;102885.81;;;7.42;100.00
60817;BME280;51921;51.518;-3.188;2024-01-27T11:22:44;102887.18;;;7.47;100.00
60817;BME280;51921;51.518;-3.188;2024-01-27T11:25:15;102885.85;;;6.69;100.00
60817;BME280;51921;51.518;-3.188;2024-01-27T11:27:35;102879.52;;;6.78;100.00
60817;BME280;51921;51.518;-3.188;2024-01-27T11:30:01;102870.50;;;6.58;100.00
60817;BME280;51921;51.518;-3.188;2024-01-27T11:32:26;102866.12;;;7.02;100.00
60817;BME280;51921;51.518;-3.188;2024-01-27T11:34:52;102865.63;;;7.46;100.00
60817;BME280;51921;51.518;-3.188;2024-01-27T11:37:17;102862.74;;;8.04;100.00
60817;BME280;51921;51.518;-3.188;2024-01-27T11:39:43;102857.82;;;6.82;100.00
60817;BME280;51921;51.518;-3.188;2024-01-27T11:42:10;102859.94;;;7.20;100.00
60817;BME280;51921;51.518;-3.188;2024-01-27T11:44:35;102865.52;;;6.43;100.00
60817;BME280;51921;51.518;-3.188;2024-01-27T11:46:59;102880.37;;;6.51;100.00
60817;BME280;51921;51.518;-3.188;2024-01-27T11:49:24;102866.43;;;6.09;100.00
60817;BME280;51921;51.518;-3.188;2024-01-27T11:51:50;102851.09;;;5.98;100.00
60817;BME280;51921;51.518;-3.188;2024-01-27T11:54:15;102850.52;;;6.41;100.00
60817;BME280;51921;51.518;-3.188;2024-01-27T11:56:40;102845.64;;;6.73;100.00
60817;BME280;51921;51.518;-3.188;2024-01-27T11:59:06;102843.58;;;7.30;100.00
60817;BME280;51921;51.518;-3.188;2024-01-27T12:01:32;102827.68;;;6.49;100.00
60817;BME280;51921;51.518;-3.188;2024-01-27T12:03:57;102807.41;;;7.53;100.00
60817;BME280;51921;51.518;-3.188;2024-01-27T12:06:23;102796.73;;;7.31;100.00
60817;BME280;51921;51.518;-3.188;2024-01-27T12:08:48;102804.14;;;7.49;100.00
60817;BME280;51921;51.518;-3.188;2024-01-27T12:11:14;102802.20;;;8.62;100.00
60817;BME280;51921;51.518;-3.188;2024-01-27T12:13:39;102795.68;;;7.68;100.00
60817;BME280;51921;51.518;-3.188;2024-01-27T12:16:06;102791.39;;;7.71;100.00
60817;BME280;51921;51.518;-3.188;2024-01-27T12:18:30;102786.57;;;6.59;100.00
60817;BME280;51921;51.518;-3.188;2024-01-27T12:20:56;102787.47;;;6.59;100.00
60817;BME280;51921;51.518;-3.188;2024-01-27T12:23:21;102783.47;;;7.50;100.00
60817;BME280;51921;51.518;-3.188;2024-01-27T12:25:52;102774.22;;;6.86;100.00
60817;BME280;51921;51.518;-3.188;2024-01-27T12:28:12;102765.48;;;8.03;100.00
60817;BME280;51921;51.518;-3.188;2024-01-27T12:30:38;102764.43;;;8.35;100.00